Аэропорт: Внуково. Москва

ICAO: UUWW

METAR:
2022-06-26 11:30:00
UUWW 261130Z 23002MPS 160V300 CAVOK 30/12 Q1021 R24/000070 NOSIG
METAR:
2022-06-26 07:54:00
TAF UUWW 260754Z 2609/2709 35003G08MPS 9999 SCT040 TX31/2612Z TN18/2701Z TEMPO 2706/2709 31009G15MPS SCT030CB